createdAt,value
2022-12-26T00:01:44.710Z,7.31
2022-12-26T00:06:41.348Z,7.28
2022-12-26T00:11:40.833Z,7.26
2022-12-26T00:16:39.036Z,7.31
2022-12-26T00:21:35.923Z,7.32
2022-12-26T00:26:35.533Z,7.33
2022-12-26T00:31:35.648Z,7.11
2022-12-26T00:36:33.372Z,7.49
2022-12-26T00:41:29.981Z,7.29
2022-12-26T00:46:27.019Z,7.22
2022-12-26T00:51:24.996Z,7.31
2022-12-26T00:56:21.720Z,7.38
2022-12-26T01:01:19.568Z,7.48
2022-12-26T01:06:16.574Z,7.32
2022-12-26T01:11:14.723Z,7.49
2022-12-26T01:16:11.910Z,7.54
2022-12-26T01:21:10.314Z,7.37
2022-12-26T01:26:17.199Z,7.41
2022-12-26T01:31:19.089Z,7.36
2022-12-26T01:36:16.300Z,6.95
2022-12-26T01:41:22.712Z,6.93
2022-12-26T01:46:21.416Z,7.16
2022-12-26T01:51:21.856Z,7.26
2022-12-26T01:56:21.564Z,7.09
2022-12-26T02:01:19.791Z,6.49
2022-12-26T02:06:17.114Z,6.45
2022-12-26T02:11:16.130Z,6.39
2022-12-26T02:16:19.861Z,6.38
2022-12-26T02:21:30.251Z,6.63
2022-12-26T02:26:50.861Z,6.69
2022-12-26T02:31:52.127Z,6.91
2022-12-26T02:37:07.906Z,7.06
2022-12-26T02:42:11.031Z,7.02
2022-12-26T02:47:11.416Z,6.74
2022-12-26T02:52:42.153Z,6.93
2022-12-26T02:58:02.367Z,6.99
2022-12-26T03:03:20.662Z,6.92
2022-12-26T03:08:38.952Z,6.70
2022-12-26T03:13:36.771Z,6.66
2022-12-26T03:18:58.941Z,6.69
2022-12-26T03:23:54.230Z,6.75
2022-12-26T03:29:18.680Z,6.59
2022-12-26T03:34:19.318Z,6.74
2022-12-26T03:39:41.851Z,6.87
2022-12-26T03:45:05.080Z,6.75
2022-12-26T03:50:36.254Z,6.82
2022-12-26T03:55:55.534Z,6.91
2022-12-26T04:01:11.978Z,7.07
2022-12-26T04:06:44.000Z,6.96
2022-12-26T04:12:01.988Z,6.79
2022-12-26T04:17:19.216Z,6.59
2022-12-26T04:22:43.538Z,5.87
2022-12-26T04:27:58.401Z,5.86
2022-12-26T04:33:15.951Z,6.01
2022-12-26T04:38:33.145Z,5.67
2022-12-26T04:43:51.672Z,5.82
2022-12-26T04:49:08.639Z,6.02
2022-12-26T04:54:06.666Z,5.11
2022-12-26T04:59:05.337Z,5.28
2022-12-26T05:04:19.693Z,5.55
2022-12-26T05:09:36.953Z,5.19
2022-12-26T05:14:36.018Z,5.65
2022-12-26T05:19:51.003Z,5.85
2022-12-26T05:25:06.955Z,6.07
2022-12-26T05:30:03.733Z,6.00
2022-12-26T05:35:01.004Z,6.13
2022-12-26T05:39:59.239Z,6.08
2022-12-26T05:44:55.789Z,6.13
2022-12-26T05:49:52.626Z,6.11
2022-12-26T05:54:49.151Z,6.13
2022-12-26T05:59:46.425Z,6.18
2022-12-26T06:04:42.943Z,6.28
2022-12-26T06:09:39.523Z,6.24
2022-12-26T06:14:36.020Z,6.03
2022-12-26T06:19:37.948Z,5.60
2022-12-26T06:24:39.141Z,5.88
2022-12-26T06:29:37.701Z,5.92
2022-12-26T06:34:34.909Z,5.99
2022-12-26T06:39:31.524Z,6.00
2022-12-26T06:44:28.441Z,5.94
2022-12-26T06:49:32.116Z,6.14
2022-12-26T06:54:35.017Z,5.99
2022-12-26T06:59:31.595Z,5.60
2022-12-26T07:04:28.182Z,5.83
2022-12-26T07:09:29.824Z,5.95
2022-12-26T07:14:32.291Z,6.03
2022-12-26T07:19:28.792Z,6.06
2022-12-26T07:24:25.519Z,6.24
2022-12-26T07:29:22.121Z,6.39
2022-12-26T07:34:20.390Z,6.46
2022-12-26T07:39:18.115Z,6.63
2022-12-26T07:44:14.673Z,6.44
2022-12-26T07:49:11.814Z,6.41
2022-12-26T07:54:14.488Z,6.45
2022-12-26T07:59:12.926Z,6.56
2022-12-26T08:04:10.951Z,6.65
2022-12-26T08:09:08.071Z,6.63
2022-12-26T08:14:05.345Z,6.74
2022-12-26T08:19:03.355Z,6.84
2022-12-26T08:24:00.146Z,6.88
2022-12-26T08:28:58.835Z,6.81
2022-12-26T08:33:59.700Z,6.32
2022-12-26T08:38:57.222Z,6.03
2022-12-26T08:44:25.674Z,6.10
2022-12-26T08:49:14.897Z,6.55
2022-12-26T08:54:14.477Z,6.84
2022-12-26T08:59:10.975Z,7.08
2022-12-26T09:04:11.482Z,7.24
2022-12-26T09:09:10.726Z,7.42
2022-12-26T09:14:07.490Z,7.56
2022-12-26T09:19:05.101Z,7.64
2022-12-26T09:24:03.832Z,7.79
2022-12-26T09:29:03.441Z,7.93
2022-12-26T09:34:03.154Z,8.06
2022-12-26T09:39:01.024Z,8.16
2022-12-26T09:44:10.752Z,8.26
2022-12-26T09:49:12.179Z,8.25
2022-12-26T09:54:14.374Z,8.43
2022-12-26T09:59:15.213Z,8.56
2022-12-26T10:04:25.067Z,8.65
2022-12-26T10:09:46.458Z,8.45
2022-12-26T10:14:51.410Z,8.65
2022-12-26T10:19:57.062Z,8.83
2022-12-26T10:24:55.408Z,9.00
2022-12-26T10:29:56.175Z,9.30
2022-12-26T10:34:59.514Z,9.01
2022-12-26T10:39:57.532Z,9.01
2022-12-26T10:44:54.854Z,9.19
2022-12-26T10:49:52.370Z,9.56
2022-12-26T10:55:29.060Z,9.45
2022-12-26T11:00:18.375Z,9.47
2022-12-26T11:05:40.357Z,9.66
2022-12-26T11:10:39.283Z,9.85
2022-12-26T11:15:38.824Z,9.89
2022-12-26T11:20:35.527Z,9.93
2022-12-26T11:25:35.258Z,9.89
2022-12-26T11:30:33.678Z,9.97
2022-12-26T11:35:36.484Z,10.08
2022-12-26T11:40:36.045Z,10.29
2022-12-26T11:45:42.815Z,10.26
2022-12-26T11:50:47.991Z,10.22
2022-12-26T11:55:59.966Z,10.48
2022-12-26T12:01:06.833Z,10.96
2022-12-26T12:06:11.007Z,10.54
2022-12-26T12:11:15.707Z,10.48
2022-12-26T12:16:21.749Z,10.32
2022-12-26T12:21:26.196Z,10.81
2022-12-26T12:26:27.194Z,10.54
2022-12-26T12:31:43.131Z,10.38
2022-12-26T12:36:54.321Z,11.04
2022-12-26T12:42:01.612Z,10.85
2022-12-26T12:47:04.096Z,10.94
2022-12-26T12:52:11.949Z,10.65
2022-12-26T12:57:12.969Z,10.60
2022-12-26T13:02:20.283Z,10.53
2022-12-26T13:07:22.036Z,10.48
2022-12-26T13:12:23.381Z,10.45
2022-12-26T13:17:24.059Z,10.46
2022-12-26T13:22:26.339Z,10.48
2022-12-26T13:27:26.779Z,10.60
2022-12-26T13:32:24.640Z,10.54
2022-12-26T13:37:49.093Z,10.49
2022-12-26T13:43:08.315Z,10.54
2022-12-26T13:48:39.542Z,10.52
2022-12-26T13:53:39.356Z,10.52
2022-12-26T13:58:54.687Z,10.52
2022-12-26T14:04:06.807Z,10.48
2022-12-26T14:09:08.905Z,10.50
2022-12-26T14:14:19.254Z,10.45
2022-12-26T14:19:26.678Z,10.41
2022-12-26T14:24:34.652Z,10.41
2022-12-26T14:29:42.872Z,10.42
2022-12-26T14:34:47.618Z,10.36
2022-12-26T14:39:48.363Z,10.33
2022-12-26T14:44:46.177Z,10.20
2022-12-26T14:49:43.221Z,10.23
2022-12-26T14:54:50.885Z,10.19
2022-12-26T15:00:10.713Z,10.21
2022-12-26T15:05:14.392Z,10.18
2022-12-26T15:10:30.659Z,10.23
2022-12-26T15:15:34.414Z,10.09
2022-12-26T15:20:49.145Z,10.14
2022-12-26T15:26:03.719Z,10.04
2022-12-26T15:31:18.401Z,9.88
2022-12-26T15:36:20.079Z,9.93
2022-12-26T15:41:25.400Z,9.89
2022-12-26T15:46:24.540Z,9.70
2022-12-26T15:51:29.808Z,9.73
2022-12-26T15:56:44.627Z,9.74
2022-12-26T16:01:44.531Z,9.64
2022-12-26T16:06:52.627Z,9.50
2022-12-26T16:11:52.563Z,9.40
2022-12-26T16:16:49.331Z,9.30
2022-12-26T16:22:19.775Z,9.25
2022-12-26T16:27:18.711Z,9.32
2022-12-26T16:32:18.648Z,9.19
2022-12-26T16:37:17.553Z,9.05
2022-12-26T16:42:31.899Z,8.91
2022-12-26T16:47:34.088Z,8.84
2022-12-26T16:52:40.565Z,8.63
2022-12-26T16:57:42.953Z,8.54
2022-12-26T17:02:45.014Z,8.50
2022-12-26T17:07:45.558Z,8.43
2022-12-26T17:12:49.024Z,8.34
2022-12-26T17:17:48.200Z,8.21
2022-12-26T17:22:44.896Z,8.13
2022-12-26T17:27:42.190Z,7.96
2022-12-26T17:32:40.254Z,8.03
2022-12-26T17:37:43.219Z,7.86
2022-12-26T17:42:49.353Z,7.55
2022-12-26T17:47:45.899Z,7.56
2022-12-26T17:52:42.668Z,7.59
2022-12-26T17:57:39.209Z,7.49
2022-12-26T18:02:36.760Z,7.51
2022-12-26T18:07:33.563Z,7.28
2022-12-26T18:12:30.382Z,7.38
2022-12-26T18:17:26.969Z,7.61
2022-12-26T18:22:24.172Z,7.53
2022-12-26T18:27:22.656Z,7.53
2022-12-26T18:32:22.510Z,7.42
2022-12-26T18:37:23.656Z,7.49
2022-12-26T18:42:20.938Z,7.28
2022-12-26T18:47:21.713Z,7.38
2022-12-26T18:52:18.467Z,7.31
2022-12-26T18:57:17.246Z,7.30
2022-12-26T19:02:18.589Z,7.13
2022-12-26T19:07:17.394Z,6.94
2022-12-26T19:12:14.030Z,6.92
2022-12-26T19:17:10.587Z,6.84
2022-12-26T19:22:10.394Z,6.72
2022-12-26T19:27:11.354Z,6.80
2022-12-26T19:32:09.900Z,6.90
2022-12-26T19:37:07.298Z,6.45
2022-12-26T19:42:03.914Z,6.61
2022-12-26T19:47:11.402Z,6.33
2022-12-26T19:52:10.655Z,6.32
2022-12-26T19:57:08.440Z,6.55
2022-12-26T20:02:05.429Z,6.62
2022-12-26T20:07:03.392Z,6.30
2022-12-26T20:12:04.346Z,6.32
2022-12-26T20:17:06.236Z,6.36
2022-12-26T20:22:05.683Z,6.31
2022-12-26T20:27:03.065Z,6.35
2022-12-26T20:32:00.381Z,6.34
2022-12-26T20:36:59.962Z,6.62
2022-12-26T20:41:58.926Z,6.91
2022-12-26T20:46:58.408Z,7.08
2022-12-26T20:51:55.001Z,6.88
2022-12-26T20:56:51.879Z,6.85
2022-12-26T21:01:50.143Z,7.02
2022-12-26T21:06:49.542Z,6.62
2022-12-26T21:11:46.115Z,6.57
2022-12-26T21:16:43.920Z,6.46
2022-12-26T21:21:44.105Z,6.57
2022-12-26T21:26:42.678Z,6.73
2022-12-26T21:31:39.346Z,6.43
2022-12-26T21:36:35.894Z,6.11
2022-12-26T21:41:32.475Z,5.61
2022-12-26T21:46:29.771Z,5.90
2022-12-26T21:51:29.065Z,5.89
2022-12-26T21:56:25.591Z,5.60
2022-12-26T22:01:26.018Z,5.52
2022-12-26T22:06:23.275Z,5.79
2022-12-26T22:11:40.680Z,5.51
2022-12-26T22:16:37.227Z,5.34
2022-12-26T22:21:35.876Z,5.70
2022-12-26T22:26:32.427Z,5.31
2022-12-26T22:31:34.124Z,5.56
2022-12-26T22:36:32.579Z,5.83
2022-12-26T22:41:29.770Z,5.94
2022-12-26T22:46:26.333Z,5.94
2022-12-26T22:51:23.941Z,5.95
2022-12-26T22:56:20.434Z,6.02
2022-12-26T23:01:20.235Z,5.49
2022-12-26T23:06:20.153Z,5.51
2022-12-26T23:11:17.102Z,5.70
2022-12-26T23:16:19.610Z,5.50
2022-12-26T23:21:39.361Z,5.43
2022-12-26T23:26:35.891Z,5.57
2022-12-26T23:31:35.814Z,5.50
2022-12-26T23:36:35.808Z,4.95
2022-12-26T23:41:32.783Z,4.83
2022-12-26T23:46:32.008Z,4.99
2022-12-26T23:51:28.540Z,5.02
2022-12-26T23:56:27.180Z,5.09
